LEAS/OVD METAR and TAF weather

Enter ICAO airport designator
Station Type Date Time Source
LEAS METAR 2020/07/02 18:00 UTC NOAA

LEAS 021800Z 31007KT 280V340 9999 FEW040 SCT055 17/12 Q1023 NOSIG


Station Type Date Time Source
LEAS Decoded METAR 2020/07/02 18:00 UTC NOAA

Asturias / Aviles, Spain (LEAS) 43-33N 006-02W 130M
Jul 02, 2020 - 02:00 PM EDT / 2020.07.02 1800 UTC
Wind: from the NW (310 degrees) at 8 MPH (7 KT) (direction variable):0
Visibility: greater than 7 mile(s):0
Sky conditions: partly cloudy
Temperature: 62 F (17 C)
Dew Point: 53 F (12 C)
Relative Humidity: 72%
Pressure (altimeter): 30.21 in. Hg (1023 hPa)
ob: LEAS 021800Z 31007KT 280V340 9999 FEW040 SCT055 17/12 Q1023 NOSIG
cycle: 18

Station Type Date Time Source
LEAS TAF 2020/07/02 15:31 UTC NOAA

TAF LEAS 021400Z 0215/0315 32010KT 9999 SCT020 BKN035 TX20/0314Z TN12/0305Z PROB30
TEMPO 0216/0221 BKN014
BECMG 0218/0221 24006KT PROB30
TEMPO 0313/0315 03010KT

Example: see airport list